Naikai2 — JD2433 — position and weather

sailwx.info

Track history (hours):
 
Tides and Currents Weather Stations Pressure Air Temp Water Temp Dewpoint Dewpoint Depression Visibility Wind Speed Wind Dir Waves Ship Positions

Naikai2

Last reported at 2014-Nov-28 03:05 UTC. Time now 2014-Nov-28 11:05 UTC.
Position N 34°39' E 135°10'.

Length 28 m; draft 2.2 m.

Type: Other ship. MMSI: 431000283.

Date/timePositionNaut miles runAvg speedWind from/ knotsBaromVisibWave heightAir tempDewpointWater temp
2014-Nov-28 03:05N 34°39' E 135°10'1 2.4
2014-Nov-28 02:33N 34°40' E 135°11'9 9.5
2014-Nov-28 01:33N 34°36' E 135°21'3 3.2
2014-Nov-28 00:32N 34°33' E 135°24'7 7.0
2014-Nov-27 23:33N 34°35' E 135°16'6 6.1
2014-Nov-27 22:33N 34°39' E 135°10'4 0.3
2014-Nov-27 08:33N 34°36' E 135°07'6 6.1
2014-Nov-27 07:33N 34°38' E 134°60'9 8.6
2014-Nov-27 06:33N 34°39' E 135°10'0 0.0
2014-Nov-27 05:33N 34°39' E 135°10'0 0.0
2014-Nov-27 04:33N 34°39' E 135°10'0 0.0
2014-Nov-27 03:33N 34°39' E 135°10'0 0.0
2014-Nov-27 02:33N 34°39' E 135°10'0 0.0
2014-Nov-27 01:33N 34°39' E 135°10'0 0.0
2014-Nov-27 00:33N 34°39' E 135°10'5 0.3
2014-Nov-26 05:34N 34°34' E 135°08'10 4.8
2014-Nov-26 03:26N 34°25' E 135°02'1010.9
2014-Nov-26 02:32N 34°34' E 135°05'17 4.1
2014-Nov-25 22:24N 34°41' E 134°46'7 7.4
2014-Nov-25 21:26N 34°37' E 134°54'9 9.6
2014-Nov-25 20:33N 34°36' E 135°04'6 5.8
2014-Nov-25 19:33N 34°39' E 135°10'3 0.2
2014-Nov-25 05:33N 34°38' E 135°07'12 2.8
2014-Nov-25 01:22N 34°35' E 134°53'1012.7
2014-Nov-25 00:33N 34°35' E 135°06'5 5.1
2014-Nov-24 23:33N 34°31' E 135°09'1713.9
2014-Nov-24 22:21N 34°16' E 134°59'4 4.7
2014-Nov-24 21:33N 34°13' E 135°01'1212.2
2014-Nov-24 20:33N 34°25' E 135°01'1414.1
2014-Nov-24 19:34N 34°37' E 135°10'2 2.4
2014-Nov-24 18:33N 34°39' E 135°10'0 0.0
2014-Nov-24 00:34N 34°39' E 135°10'0 0.2
2014-Nov-23 23:34N 34°39' E 135°10'0 0.0
2014-Nov-23 04:31N 34°39' E 135°10'8 7.5
2014-Nov-23 03:30N 34°37' E 135°01'7 7.3
2014-Nov-23 02:33N 34°37' E 135°09'2 1.9
2014-Nov-23 01:33N 34°39' E 135°10'3 0.7
2014-Nov-22 21:33N 34°38' E 135°07'5 4.6
2014-Nov-22 20:32N 34°37' E 135°01'7 7.0
2014-Nov-22 19:33N 34°38' E 135°10'2 1.5
2014-Nov-22 18:33N 34°39' E 135°10'2 0.1
2014-Nov-21 10:26N 34°37' E 135°09'1315.1
2014-Nov-21 09:33N 34°25' E 135°03'4 2.4
2014-Nov-21 08:05N 34°22' E 134°60'713.1
2014-Nov-21 07:34N 34°29' E 135°03'8 7.7
2014-Nov-21 06:31N 34°36' E 135°02'7 0.2
2014-Nov-20 01:25N 34°35' E 134°53'910.4
2014-Nov-20 00:33N 34°35' E 135°04'6 6.1
2014-Nov-19 23:33N 34°29' E 135°06'1110.5
2014-Nov-19 22:29N 34°19' E 135°00'8 9.1
2014-Nov-19 21:33N 34°11' E 135°01'4 0.2
2014-Nov-19 04:33N 34°14' E 135°03'1010.1
2014-Nov-19 03:31N 34°24' E 135°01'1110.9
2014-Nov-19 02:32N 34°35' E 135°04'12 3.0
2014-Nov-18 22:30N 34°39' E 134°50'1415.2
2014-Nov-18 21:33N 34°37' E 135°08'3 0.2
2014-Nov-18 06:25N 34°38' E 135°11'1213.9
2014-Nov-18 05:33N 34°34' E 135°24'2 2.2
2014-Nov-18 04:30N 34°33' E 135°21'4 4.4
2014-Nov-18 03:34N 34°36' E 135°17'  
Track history (hours):
 
Tides and Currents Weather Stations Pressure Air Temp Water Temp Dewpoint Dewpoint Depression Visibility Wind Speed Wind Dir Waves Ship Positions

Naikai2

Last reported at 2014-Nov-28 03:05 UTC. Time now 2014-Nov-28 11:05 UTC.
Position N 34°39' E 135°10'.

Length 28 m; draft 2.2 m.

Type: Other ship. MMSI: 431000283.

Date/timePositionNaut miles runAvg speedWind from/ knotsBaromVisibWave heightAir tempDewpointWater temp
2014-Nov-28 03:05N 34°39' E 135°10'1 2.4
2014-Nov-28 02:33N 34°40' E 135°11'9 9.5
2014-Nov-28 01:33N 34°36' E 135°21'3 3.2
2014-Nov-28 00:32N 34°33' E 135°24'7 7.0
2014-Nov-27 23:33N 34°35' E 135°16'6 6.1
2014-Nov-27 22:33N 34°39' E 135°10'4 0.3
2014-Nov-27 08:33N 34°36' E 135°07'6 6.1
2014-Nov-27 07:33N 34°38' E 134°60'9 8.6
2014-Nov-27 06:33N 34°39' E 135°10'0 0.0
2014-Nov-27 05:33N 34°39' E 135°10'0 0.0
2014-Nov-27 04:33N 34°39' E 135°10'0 0.0
2014-Nov-27 03:33N 34°39' E 135°10'0 0.0
2014-Nov-27 02:33N 34°39' E 135°10'0 0.0
2014-Nov-27 01:33N 34°39' E 135°10'0 0.0
2014-Nov-27 00:33N 34°39' E 135°10'5 0.3
2014-Nov-26 05:34N 34°34' E 135°08'10 4.8
2014-Nov-26 03:26N 34°25' E 135°02'1010.9
2014-Nov-26 02:32N 34°34' E 135°05'17 4.1
2014-Nov-25 22:24N 34°41' E 134°46'7 7.4
2014-Nov-25 21:26N 34°37' E 134°54'9 9.6
2014-Nov-25 20:33N 34°36' E 135°04'6 5.8
2014-Nov-25 19:33N 34°39' E 135°10'3 0.2
2014-Nov-25 05:33N 34°38' E 135°07'12 2.8
2014-Nov-25 01:22N 34°35' E 134°53'1012.7
2014-Nov-25 00:33N 34°35' E 135°06'5 5.1
2014-Nov-24 23:33N 34°31' E 135°09'1713.9
2014-Nov-24 22:21N 34°16' E 134°59'4 4.7
2014-Nov-24 21:33N 34°13' E 135°01'1212.2
2014-Nov-24 20:33N 34°25' E 135°01'1414.1
2014-Nov-24 19:34N 34°37' E 135°10'2 2.4
2014-Nov-24 18:33N 34°39' E 135°10'0 0.0
2014-Nov-24 00:34N 34°39' E 135°10'0 0.2
2014-Nov-23 23:34N 34°39' E 135°10'0 0.0
2014-Nov-23 04:31N 34°39' E 135°10'8 7.5
2014-Nov-23 03:30N 34°37' E 135°01'7 7.3
2014-Nov-23 02:33N 34°37' E 135°09'2 1.9
2014-Nov-23 01:33N 34°39' E 135°10'3 0.7
2014-Nov-22 21:33N 34°38' E 135°07'5 4.6
2014-Nov-22 20:32N 34°37' E 135°01'7 7.0
2014-Nov-22 19:33N 34°38' E 135°10'2 1.5
2014-Nov-22 18:33N 34°39' E 135°10'2 0.1
2014-Nov-21 10:26N 34°37' E 135°09'1315.1
2014-Nov-21 09:33N 34°25' E 135°03'4 2.4
2014-Nov-21 08:05N 34°22' E 134°60'713.1
2014-Nov-21 07:34N 34°29' E 135°03'8 7.7
2014-Nov-21 06:31N 34°36' E 135°02'7 0.2
2014-Nov-20 01:25N 34°35' E 134°53'910.4
2014-Nov-20 00:33N 34°35' E 135°04'6 6.1
2014-Nov-19 23:33N 34°29' E 135°06'1110.5
2014-Nov-19 22:29N 34°19' E 135°00'8 9.1
2014-Nov-19 21:33N 34°11' E 135°01'4 0.2
2014-Nov-19 04:33N 34°14' E 135°03'1010.1
2014-Nov-19 03:31N 34°24' E 135°01'1110.9
2014-Nov-19 02:32N 34°35' E 135°04'12 3.0
2014-Nov-18 22:30N 34°39' E 134°50'1415.2
2014-Nov-18 21:33N 34°37' E 135°08'3 0.2
2014-Nov-18 06:25N 34°38' E 135°11'1213.9
2014-Nov-18 05:33N 34°34' E 135°24'2 2.2
2014-Nov-18 04:30N 34°33' E 135°21'4 4.4
2014-Nov-18 03:34N 34°36' E 135°17'  

Dump ship's entire track history